createdAt,value
2017-08-01T00:00:02.958Z,0
2017-08-01T00:05:03.302Z,0
2017-08-01T00:10:02.791Z,0
2017-08-01T00:15:03.165Z,0
2017-08-01T00:20:02.444Z,0
2017-08-01T00:25:02.984Z,0
2017-08-01T00:30:02.342Z,0
2017-08-01T00:35:02.766Z,0
2017-08-01T00:40:03.278Z,0
2017-08-01T00:45:02.534Z,0
2017-08-01T00:50:02.942Z,0
2017-08-01T00:55:02.361Z,0
2017-08-01T01:00:02.752Z,0
2017-08-01T01:05:03.054Z,0
2017-08-01T01:10:02.356Z,0
2017-08-01T01:15:02.657Z,0
2017-08-01T01:20:03.035Z,0
2017-08-01T01:25:03.288Z,0
2017-08-01T01:30:02.724Z,0
2017-08-01T01:35:03.016Z,0
2017-08-01T01:40:02.446Z,0
2017-08-01T01:45:02.840Z,0
2017-08-01T01:50:03.196Z,0
2017-08-01T01:55:02.531Z,0
2017-08-01T02:00:02.981Z,0
2017-08-01T02:05:02.404Z,0
2017-08-01T02:10:02.748Z,0
2017-08-01T02:15:03.055Z,0
2017-08-01T02:20:02.451Z,0
2017-08-01T02:25:02.743Z,0
2017-08-01T02:30:03.101Z,0
2017-08-01T02:35:02.536Z,0
2017-08-01T02:40:02.864Z,0
2017-08-01T02:45:03.266Z,0
2017-08-01T02:50:02.558Z,0
2017-08-01T02:55:03.113Z,0
2017-08-01T03:00:02.383Z,0
2017-08-01T03:05:02.773Z,0
2017-08-01T03:10:03.067Z,0
2017-08-01T03:15:02.524Z,0
2017-08-01T03:20:02.810Z,0
2017-08-01T03:25:03.072Z,2
2017-08-01T03:30:02.506Z,4
2017-08-01T03:35:02.765Z,9
2017-08-01T03:40:03.200Z,16
2017-08-01T03:45:02.606Z,24
2017-08-01T03:50:03.218Z,34
2017-08-01T04:00:03.299Z,55
2017-08-01T04:05:02.511Z,80
2017-08-01T04:10:02.862Z,183
2017-08-01T04:15:03.245Z,305
2017-08-01T04:20:02.683Z,388
2017-08-01T04:25:02.935Z,519
2017-08-01T04:30:03.263Z,626
2017-08-01T04:35:02.489Z,666
2017-08-01T04:40:02.901Z,673
2017-08-01T04:45:03.310Z,672
2017-08-01T04:50:02.678Z,630
2017-08-01T04:55:02.929Z,669
2017-08-01T05:00:03.182Z,695
2017-08-01T05:05:02.544Z,927
2017-08-01T05:10:02.859Z,1000
2017-08-01T05:15:03.283Z,1000
2017-08-01T05:20:02.618Z,1000
2017-08-01T05:30:02.449Z,2000
2017-08-01T05:35:02.842Z,2000
2017-08-01T05:40:03.121Z,3000
2017-08-01T05:45:02.454Z,3000
2017-08-01T05:50:02.740Z,2000
2017-08-01T05:55:03.089Z,2000
2017-08-01T06:00:02.321Z,3000
2017-08-01T06:05:02.724Z,5000
2017-08-01T06:10:03.177Z,6000
2017-08-01T06:15:02.450Z,6000
2017-08-01T06:20:02.921Z,6000
2017-08-01T06:25:02.382Z,6000
2017-08-01T06:30:02.785Z,6000
2017-08-01T06:35:03.097Z,5000
2017-08-01T06:40:02.416Z,5000
2017-08-01T06:45:02.723Z,5000
2017-08-01T06:50:03.002Z,5000
2017-08-01T06:55:03.284Z,5000
2017-08-01T07:00:02.656Z,6000
2017-08-01T07:05:03.110Z,6000
2017-08-01T07:10:02.473Z,6000
2017-08-01T07:15:02.848Z,5000
2017-08-01T07:20:03.124Z,8000
2017-08-01T07:25:02.468Z,8000
2017-08-01T07:30:02.705Z,8000
2017-08-01T07:35:03.152Z,8000
2017-08-01T07:40:02.484Z,6000
2017-08-01T07:45:02.959Z,6000
2017-08-01T07:50:03.299Z,5000
2017-08-01T07:55:02.732Z,5000
2017-08-01T08:00:03.042Z,5000
2017-08-01T08:05:02.370Z,6000
2017-08-01T08:10:02.680Z,6000
2017-08-01T08:15:02.988Z,7000
2017-08-01T08:20:03.318Z,7000
2017-08-01T08:25:02.659Z,7000
2017-08-01T08:30:02.979Z,6000
2017-08-01T08:35:02.485Z,5000
2017-08-01T08:40:02.767Z,5000
2017-08-01T08:45:03.090Z,6000
2017-08-01T08:50:02.493Z,5000
2017-08-01T08:55:03.018Z,5000
2017-08-01T09:00:03.318Z,5000
2017-08-01T09:05:02.789Z,5000
2017-08-01T09:10:03.258Z,5000
2017-08-01T09:15:02.571Z,6000
2017-08-01T09:20:03.016Z,8000
2017-08-01T09:25:02.374Z,7000
2017-08-01T09:30:02.643Z,8000
2017-08-01T09:35:03.034Z,14000
2017-08-01T09:40:02.470Z,10000
2017-08-01T09:45:02.924Z,9000
2017-08-01T09:50:03.266Z,12000
2017-08-01T09:55:02.620Z,12000
2017-08-01T10:00:02.899Z,5000
2017-08-01T10:05:03.125Z,6000
2017-08-01T10:10:02.612Z,10000
2017-08-01T10:15:02.992Z,24000
2017-08-01T10:20:02.448Z,33000
2017-08-01T10:25:02.793Z,37000
2017-08-01T10:30:03.186Z,33000
2017-08-01T10:35:02.441Z,26000
2017-08-01T10:40:02.846Z,25000
2017-08-01T10:45:03.256Z,33000
2017-08-01T10:50:02.509Z,28000
2017-08-01T10:55:02.839Z,24000
2017-08-01T11:00:03.111Z,32000
2017-08-01T11:05:02.381Z,32000
2017-08-01T11:10:02.833Z,32000
2017-08-01T11:15:03.096Z,15000
2017-08-01T11:20:02.425Z,38000
2017-08-01T11:25:02.685Z,30000
2017-08-01T11:30:03.078Z,24000
2017-08-01T11:35:02.350Z,26000
2017-08-01T11:40:02.784Z,15000
2017-08-01T11:45:03.180Z,12000
2017-08-01T11:50:02.446Z,9000
2017-08-01T11:55:02.719Z,10000
2017-08-01T12:00:02.973Z,11000
2017-08-01T12:05:02.354Z,11000
2017-08-01T12:10:02.778Z,12000
2017-08-01T12:15:03.176Z,10000
2017-08-01T12:20:02.464Z,9000
2017-08-01T12:25:02.874Z,5000
2017-08-01T12:30:03.112Z,5000
2017-08-01T12:35:02.369Z,6000
2017-08-01T12:40:02.768Z,6000
2017-08-01T12:45:03.202Z,7000
2017-08-01T12:50:02.597Z,7000
2017-08-01T12:55:02.925Z,8000
2017-08-01T13:00:02.325Z,10000
2017-08-01T13:05:02.696Z,20000
2017-08-01T13:10:03.107Z,30000
2017-08-01T13:15:02.426Z,28000
2017-08-01T13:20:02.847Z,15000
2017-08-01T13:25:03.128Z,14000
2017-08-01T13:30:02.350Z,14000
2017-08-01T13:35:02.833Z,12000
2017-08-01T13:40:03.131Z,9000
2017-08-01T13:45:02.542Z,9000
2017-08-01T13:50:02.956Z,9000
2017-08-01T13:55:03.231Z,11000
2017-08-01T14:00:02.444Z,7000
2017-08-01T14:05:02.813Z,9000
2017-08-01T14:10:03.124Z,16000
2017-08-01T14:15:02.503Z,17000
2017-08-01T14:20:02.783Z,38000
2017-08-01T14:25:03.175Z,17000
2017-08-01T14:30:02.581Z,12000
2017-08-01T14:35:02.935Z,9000
2017-08-01T14:40:03.306Z,6000
2017-08-01T14:45:02.694Z,5000
2017-08-01T14:50:03.159Z,4000
2017-08-01T14:55:02.423Z,4000
2017-08-01T15:00:02.829Z,5000
2017-08-01T15:05:03.192Z,3000
2017-08-01T15:10:02.558Z,865
2017-08-01T15:15:02.815Z,1000
2017-08-01T15:20:03.224Z,2000
2017-08-01T15:25:02.552Z,6000
2017-08-01T15:30:02.868Z,7000
2017-08-01T15:35:03.281Z,6000
2017-08-01T15:40:02.786Z,7000
2017-08-01T15:45:03.166Z,5000
2017-08-01T15:50:02.411Z,10000
2017-08-01T15:55:02.696Z,12000
2017-08-01T16:00:03.095Z,11000
2017-08-01T16:05:02.567Z,7000
2017-08-01T16:10:03.026Z,7000
2017-08-01T16:15:02.428Z,8000
2017-08-01T16:20:02.793Z,5000
2017-08-01T16:25:03.150Z,4000
2017-08-01T16:30:02.410Z,2000
2017-08-01T16:35:02.692Z,2000
2017-08-01T16:40:03.125Z,3000
2017-08-01T16:45:02.489Z,4000
2017-08-01T16:50:02.842Z,6000
2017-08-01T16:55:03.194Z,6000
2017-08-01T17:00:02.596Z,6000
2017-08-01T17:05:02.940Z,16000
2017-08-01T17:10:03.331Z,14000
2017-08-01T17:15:02.693Z,13000
2017-08-01T17:20:03.163Z,11000
2017-08-01T17:25:02.597Z,9000
2017-08-01T17:30:02.958Z,7000
2017-08-01T17:35:02.397Z,5000
2017-08-01T17:40:02.894Z,3000
2017-08-01T17:45:02.410Z,2000
2017-08-01T17:50:02.898Z,7000
2017-08-01T17:55:02.349Z,2000
2017-08-01T18:00:02.647Z,2000
2017-08-01T18:05:03.027Z,2000
2017-08-01T18:10:02.493Z,2000
2017-08-01T18:15:02.927Z,1000
2017-08-01T18:20:03.227Z,1000
2017-08-01T18:25:02.712Z,1000
2017-08-01T18:30:02.978Z,855
2017-08-01T18:35:02.412Z,718
2017-08-01T18:40:02.921Z,740
2017-08-01T18:45:03.170Z,493
2017-08-01T18:50:02.446Z,422
2017-08-01T18:55:02.886Z,475
2017-08-01T19:00:03.299Z,499
2017-08-01T19:05:02.690Z,450
2017-08-01T19:10:03.036Z,336
2017-08-01T19:15:02.416Z,257
2017-08-01T19:20:02.835Z,126
2017-08-01T19:25:02.375Z,67
2017-08-01T19:30:02.775Z,63
2017-08-01T19:35:03.130Z,44
2017-08-01T19:40:02.649Z,34
2017-08-01T19:45:02.952Z,22
2017-08-01T19:50:03.238Z,12
2017-08-01T19:55:02.607Z,5
2017-08-01T20:00:02.864Z,2
2017-08-01T20:05:03.190Z,1
2017-08-01T20:10:02.646Z,0
2017-08-01T20:15:02.977Z,0
2017-08-01T20:20:03.297Z,0
2017-08-01T20:25:02.567Z,0
2017-08-01T20:30:03.028Z,0
2017-08-01T20:35:02.561Z,0
2017-08-01T20:40:02.989Z,0
2017-08-01T20:45:02.349Z,0
2017-08-01T20:50:02.726Z,0
2017-08-01T20:55:03.183Z,0
2017-08-01T21:00:02.430Z,0
2017-08-01T21:05:02.787Z,0
2017-08-01T21:10:04.520Z,0
2017-08-01T21:15:02.854Z,0
2017-08-01T21:20:03.175Z,0
2017-08-01T21:25:02.409Z,0
2017-08-01T21:30:02.955Z,0
2017-08-01T21:35:03.291Z,0
2017-08-01T21:40:02.602Z,0
2017-08-01T21:45:02.939Z,0
2017-08-01T21:50:02.307Z,0
2017-08-01T21:55:02.584Z,0
2017-08-01T22:00:02.970Z,0
2017-08-01T22:05:02.340Z,0
2017-08-01T22:10:02.807Z,0
2017-08-01T22:15:03.069Z,0
2017-08-01T22:20:02.394Z,0
2017-08-01T22:25:02.718Z,0
2017-08-01T22:30:03.085Z,0
2017-08-01T22:35:02.589Z,0
2017-08-01T22:40:03.013Z,0
2017-08-01T22:45:03.283Z,0
2017-08-01T22:50:02.689Z,0
2017-08-01T22:55:03.125Z,0
2017-08-01T23:00:02.880Z,0
2017-08-01T23:05:03.118Z,0
2017-08-01T23:10:02.484Z,0
2017-08-01T23:15:02.740Z,0
2017-08-01T23:20:03.029Z,0
2017-08-01T23:25:02.410Z,0
2017-08-01T23:30:02.888Z,0
2017-08-01T23:35:03.199Z,0
2017-08-01T23:40:02.674Z,0
2017-08-01T23:45:02.958Z,0
2017-08-01T23:50:03.288Z,0
2017-08-01T23:55:02.642Z,0
